Providence Village's Hourly Summary for Tuesday, May 15, 2018
Hour Temp
(f)
RH
(%)
Solar Rad.
(MJ/m2)
Rainfall
(in)
Wind
(mph)
5/15/2018 12:00 AM 79 66 0 0 5.48
5/15/2018 1:00 AM 79 69 0 0 4.21
5/15/2018 2:00 AM 78 69 0 0 4.13
5/15/2018 3:00 AM 78 69 0 0 3.97
5/15/2018 4:00 AM 76 71 0 0 3.75
5/15/2018 5:00 AM 75 74 0 0 1.73
5/15/2018 6:00 AM 75 76 0 0 8.44
5/15/2018 7:00 AM 74 78 0.01 0 1.7
5/15/2018 8:00 AM 72 91 0.18 0 3.2
5/15/2018 9:00 AM 73 88 0.39 0 6.55
5/15/2018 10:00 AM 73 82 0.69 0 9.68
5/15/2018 11:00 AM 76 69 2.48 0 10.48
5/15/2018 12:00 PM 78 67 2.22 0 8.38
5/15/2018 1:00 PM 81 60 2.55 0 7.2
5/15/2018 2:00 PM 83 55 3.09 0 6.88
5/15/2018 3:00 PM 84 48 2.98 0 6.98
5/15/2018 4:00 PM 86 46 2.76 0 6.18
5/15/2018 5:00 PM 86 46 1.29 0 4.35
5/15/2018 6:00 PM 79 47 0.8 0 7.5
5/15/2018 7:00 PM 75 61 0.21 0 5.8
5/15/2018 8:00 PM 76 61 0.17 0 5.91
5/15/2018 9:00 PM 75 61 0.01 0 7.57
5/15/2018 10:00 PM 74 65 0 0 3.82
5/15/2018 11:00 PM 73 66 0 0 0.85
Data Summary 77 66 19.83 0.00 5.61